sensor_id;sensor_type;location;lat;lon;timestamp;temperature;humidity
13561;DHT22;6852;51.686;5.314;2023-07-13T00:00:13;17.30;99.90
13561;DHT22;6852;51.686;5.314;2023-07-13T00:02:42;17.30;99.90
13561;DHT22;6852;51.686;5.314;2023-07-13T00:05:09;17.40;99.90
13561;DHT22;6852;51.686;5.314;2023-07-13T00:07:37;17.40;99.90
13561;DHT22;6852;51.686;5.314;2023-07-13T00:10:04;17.40;99.90
13561;DHT22;6852;51.686;5.314;2023-07-13T00:12:34;17.30;99.90
13561;DHT22;6852;51.686;5.314;2023-07-13T00:15:06;17.20;99.90
13561;DHT22;6852;51.686;5.314;2023-07-13T00:17:33;16.90;99.90
13561;DHT22;6852;51.686;5.314;2023-07-13T00:20:00;16.90;1.00
13561;DHT22;6852;51.686;5.314;2023-07-13T00:22:27;16.90;1.00
13561;DHT22;6852;51.686;5.314;2023-07-13T00:24:54;16.90;1.00
13561;DHT22;6852;51.686;5.314;2023-07-13T00:27:23;17.00;1.00
13561;DHT22;6852;51.686;5.314;2023-07-13T00:29:50;17.00;1.00
13561;DHT22;6852;51.686;5.314;2023-07-13T00:32:17;17.10;1.00
13561;DHT22;6852;51.686;5.314;2023-07-13T00:34:44;17.00;1.00
13561;DHT22;6852;51.686;5.314;2023-07-13T00:37:11;16.90;1.00
13561;DHT22;6852;51.686;5.314;2023-07-13T00:39:37;16.90;1.00
13561;DHT22;6852;51.686;5.314;2023-07-13T00:42:05;17.00;1.00
13561;DHT22;6852;51.686;5.314;2023-07-13T00:44:32;17.10;1.00
13561;DHT22;6852;51.686;5.314;2023-07-13T00:47:00;17.00;1.00
13561;DHT22;6852;51.686;5.314;2023-07-13T00:49:29;17.00;1.00
13561;DHT22;6852;51.686;5.314;2023-07-13T00:51:58;16.90;99.90
13561;DHT22;6852;51.686;5.314;2023-07-13T00:54:38;16.70;1.00
13561;DHT22;6852;51.686;5.314;2023-07-13T00:57:10;16.70;1.00
13561;DHT22;6852;51.686;5.314;2023-07-13T00:59:40;16.70;1.00
13561;DHT22;6852;51.686;5.314;2023-07-13T01:02:08;16.90;1.00
13561;DHT22;6852;51.686;5.314;2023-07-13T01:04:35;16.90;1.00
13561;DHT22;6852;51.686;5.314;2023-07-13T01:07:02;16.90;1.00
13561;DHT22;6852;51.686;5.314;2023-07-13T01:09:29;16.90;1.00
13561;DHT22;6852;51.686;5.314;2023-07-13T01:11:57;17.00;1.00
13561;DHT22;6852;51.686;5.314;2023-07-13T01:14:24;17.00;1.00
13561;DHT22;6852;51.686;5.314;2023-07-13T01:16:51;16.90;1.00
13561;DHT22;6852;51.686;5.314;2023-07-13T01:21:56;16.80;1.00
13561;DHT22;6852;51.686;5.314;2023-07-13T01:24:23;16.50;1.00
13561;DHT22;6852;51.686;5.314;2023-07-13T01:26:50;16.60;1.00
13561;DHT22;6852;51.686;5.314;2023-07-13T01:29:17;16.60;1.00
13561;DHT22;6852;51.686;5.314;2023-07-13T01:31:43;16.60;1.00
13561;DHT22;6852;51.686;5.314;2023-07-13T01:34:11;16.70;1.00
13561;DHT22;6852;51.686;5.314;2023-07-13T01:36:38;16.70;1.00
13561;DHT22;6852;51.686;5.314;2023-07-13T01:39:05;16.70;1.00
13561;DHT22;6852;51.686;5.314;2023-07-13T01:41:32;16.70;1.00
13561;DHT22;6852;51.686;5.314;2023-07-13T01:43:59;16.60;1.00
13561;DHT22;6852;51.686;5.314;2023-07-13T01:46:26;16.60;1.00
13561;DHT22;6852;51.686;5.314;2023-07-13T01:48:53;16.30;97.50
13561;DHT22;6852;51.686;5.314;2023-07-13T01:51:20;16.30;99.90
13561;DHT22;6852;51.686;5.314;2023-07-13T01:53:47;16.30;99.90
13561;DHT22;6852;51.686;5.314;2023-07-13T01:56:14;16.30;1.00
13561;DHT22;6852;51.686;5.314;2023-07-13T01:58:41;16.30;1.00
13561;DHT22;6852;51.686;5.314;2023-07-13T02:01:08;16.20;1.00
13561;DHT22;6852;51.686;5.314;2023-07-13T02:03:35;16.10;1.00
13561;DHT22;6852;51.686;5.314;2023-07-13T02:06:02;16.10;99.90
13561;DHT22;6852;51.686;5.314;2023-07-13T02:08:30;16.40;1.00
13561;DHT22;6852;51.686;5.314;2023-07-13T02:10:57;16.20;1.00
13561;DHT22;6852;51.686;5.314;2023-07-13T02:13:24;16.10;1.00
13561;DHT22;6852;51.686;5.314;2023-07-13T02:15:51;16.20;97.30
13561;DHT22;6852;51.686;5.314;2023-07-13T02:18:18;16.00;1.00
13561;DHT22;6852;51.686;5.314;2023-07-13T02:20:45;16.00;1.00
13561;DHT22;6852;51.686;5.314;2023-07-13T02:23:12;16.00;1.00
13561;DHT22;6852;51.686;5.314;2023-07-13T02:25:39;16.00;99.90
13561;DHT22;6852;51.686;5.314;2023-07-13T02:28:06;15.90;99.90
13561;DHT22;6852;51.686;5.314;2023-07-13T02:30:35;16.10;1.00
13561;DHT22;6852;51.686;5.314;2023-07-13T02:33:02;16.00;46.90
13561;DHT22;6852;51.686;5.314;2023-07-13T02:35:29;15.90;99.90
13561;DHT22;6852;51.686;5.314;2023-07-13T02:37:56;15.80;1.00
13561;DHT22;6852;51.686;5.314;2023-07-13T02:40:23;15.60;99.90
13561;DHT22;6852;51.686;5.314;2023-07-13T02:42:50;15.80;1.00
13561;DHT22;6852;51.686;5.314;2023-07-13T02:45:17;15.80;1.00
13561;DHT22;6852;51.686;5.314;2023-07-13T02:47:43;15.80;57.70
13561;DHT22;6852;51.686;5.314;2023-07-13T02:50:10;15.90;1.00
13561;DHT22;6852;51.686;5.314;2023-07-13T02:52:37;15.90;1.00
13561;DHT22;6852;51.686;5.314;2023-07-13T02:55:04;15.80;99.90
13561;DHT22;6852;51.686;5.314;2023-07-13T02:57:31;15.70;1.00
13561;DHT22;6852;51.686;5.314;2023-07-13T03:00:00;15.90;99.90
13561;DHT22;6852;51.686;5.314;2023-07-13T03:02:26;15.90;99.90
13561;DHT22;6852;51.686;5.314;2023-07-13T03:04:55;15.90;1.00
13561;DHT22;6852;51.686;5.314;2023-07-13T03:07:23;16.00;99.90
13561;DHT22;6852;51.686;5.314;2023-07-13T03:09:54;15.90;99.90
13561;DHT22;6852;51.686;5.314;2023-07-13T03:12:22;15.90;99.90
13561;DHT22;6852;51.686;5.314;2023-07-13T03:14:49;15.90;45.10
13561;DHT22;6852;51.686;5.314;2023-07-13T03:17:16;15.90;1.00
13561;DHT22;6852;51.686;5.314;2023-07-13T03:19:43;16.00;99.90
13561;DHT22;6852;51.686;5.314;2023-07-13T03:22:10;16.00;1.00
13561;DHT22;6852;51.686;5.314;2023-07-13T03:24:37;15.80;99.90
13561;DHT22;6852;51.686;5.314;2023-07-13T03:27:06;16.00;99.90
13561;DHT22;6852;51.686;5.314;2023-07-13T03:29:33;15.90;99.90
13561;DHT22;6852;51.686;5.314;2023-07-13T03:31:59;15.80;99.90
13561;DHT22;6852;51.686;5.314;2023-07-13T03:34:26;15.80;1.00
13561;DHT22;6852;51.686;5.314;2023-07-13T03:36:54;15.80;1.00
13561;DHT22;6852;51.686;5.314;2023-07-13T03:39:22;15.70;1.00
13561;DHT22;6852;51.686;5.314;2023-07-13T03:41:49;15.50;1.00
13561;DHT22;6852;51.686;5.314;2023-07-13T03:44:19;15.50;1.00
13561;DHT22;6852;51.686;5.314;2023-07-13T03:46:46;15.50;1.00
13561;DHT22;6852;51.686;5.314;2023-07-13T03:49:13;15.60;1.00
13561;DHT22;6852;51.686;5.314;2023-07-13T03:51:40;15.50;99.90
13561;DHT22;6852;51.686;5.314;2023-07-13T03:54:06;15.60;99.90
13561;DHT22;6852;51.686;5.314;2023-07-13T03:56:33;15.70;1.00
13561;DHT22;6852;51.686;5.314;2023-07-13T03:59:00;15.50;99.90
13561;DHT22;6852;51.686;5.314;2023-07-13T04:01:28;15.50;1.00
13561;DHT22;6852;51.686;5.314;2023-07-13T04:03:55;15.60;1.00
13561;DHT22;6852;51.686;5.314;2023-07-13T04:06:26;15.70;99.90
13561;DHT22;6852;51.686;5.314;2023-07-13T04:08:56;15.70;1.00
13561;DHT22;6852;51.686;5.314;2023-07-13T04:11:25;15.70;99.90
13561;DHT22;6852;51.686;5.314;2023-07-13T04:13:53;15.90;1.00
13561;DHT22;6852;51.686;5.314;2023-07-13T04:16:20;15.70;99.90
13561;DHT22;6852;51.686;5.314;2023-07-13T04:18:48;15.90;99.90
13561;DHT22;6852;51.686;5.314;2023-07-13T04:21:15;15.80;99.90
13561;DHT22;6852;51.686;5.314;2023-07-13T04:23:41;15.80;1.00
13561;DHT22;6852;51.686;5.314;2023-07-13T04:26:08;15.60;1.00
13561;DHT22;6852;51.686;5.314;2023-07-13T04:28:36;15.60;1.00
13561;DHT22;6852;51.686;5.314;2023-07-13T04:31:03;15.50;1.00
13561;DHT22;6852;51.686;5.314;2023-07-13T04:33:30;15.50;1.00
13561;DHT22;6852;51.686;5.314;2023-07-13T04:35:57;15.60;99.90
13561;DHT22;6852;51.686;5.314;2023-07-13T04:38:26;15.70;1.00
13561;DHT22;6852;51.686;5.314;2023-07-13T04:41:02;15.60;1.00
13561;DHT22;6852;51.686;5.314;2023-07-13T04:43:30;15.70;1.00
13561;DHT22;6852;51.686;5.314;2023-07-13T04:45:57;15.70;1.00
13561;DHT22;6852;51.686;5.314;2023-07-13T04:48:29;15.70;1.00
13561;DHT22;6852;51.686;5.314;2023-07-13T04:50:57;15.80;99.90
13561;DHT22;6852;51.686;5.314;2023-07-13T04:53:24;15.80;99.90
13561;DHT22;6852;51.686;5.314;2023-07-13T04:55:51;15.60;99.90
13561;DHT22;6852;51.686;5.314;2023-07-13T04:58:18;15.70;1.00
13561;DHT22;6852;51.686;5.314;2023-07-13T05:00:45;15.90;99.90
13561;DHT22;6852;51.686;5.314;2023-07-13T05:03:12;15.80;1.00
13561;DHT22;6852;51.686;5.314;2023-07-13T05:05:39;15.90;1.00
13561;DHT22;6852;51.686;5.314;2023-07-13T05:08:05;16.10;1.00
13561;DHT22;6852;51.686;5.314;2023-07-13T05:10:34;16.20;1.00
13561;DHT22;6852;51.686;5.314;2023-07-13T05:13:01;16.20;99.90
13561;DHT22;6852;51.686;5.314;2023-07-13T05:15:28;16.30;1.00
13561;DHT22;6852;51.686;5.314;2023-07-13T05:17:55;16.30;1.00
13561;DHT22;6852;51.686;5.314;2023-07-13T05:20:22;16.40;99.90
13561;DHT22;6852;51.686;5.314;2023-07-13T05:22:49;16.40;1.00
13561;DHT22;6852;51.686;5.314;2023-07-13T05:25:17;16.50;1.00
13561;DHT22;6852;51.686;5.314;2023-07-13T05:27:44;16.50;99.90
13561;DHT22;6852;51.686;5.314;2023-07-13T05:30:13;16.60;1.00
13561;DHT22;6852;51.686;5.314;2023-07-13T05:32:40;16.70;1.00
13561;DHT22;6852;51.686;5.314;2023-07-13T05:35:08;16.70;99.90
13561;DHT22;6852;51.686;5.314;2023-07-13T05:37:34;16.70;99.90
13561;DHT22;6852;51.686;5.314;2023-07-13T05:40:01;16.70;1.00
13561;DHT22;6852;51.686;5.314;2023-07-13T05:42:28;16.80;1.00
13561;DHT22;6852;51.686;5.314;2023-07-13T05:44:57;16.90;1.00
13561;DHT22;6852;51.686;5.314;2023-07-13T05:47:24;16.70;99.90
13561;DHT22;6852;51.686;5.314;2023-07-13T05:49:51;16.90;1.00
13561;DHT22;6852;51.686;5.314;2023-07-13T05:52:18;16.80;99.90
13561;DHT22;6852;51.686;5.314;2023-07-13T05:54:45;16.80;1.00
13561;DHT22;6852;51.686;5.314;2023-07-13T05:57:11;16.70;1.00
13561;DHT22;6852;51.686;5.314;2023-07-13T05:59:38;16.80;99.90
13561;DHT22;6852;51.686;5.314;2023-07-13T06:02:05;16.90;1.00
13561;DHT22;6852;51.686;5.314;2023-07-13T06:04:32;16.80;1.00
13561;DHT22;6852;51.686;5.314;2023-07-13T06:06:59;16.80;1.00
13561;DHT22;6852;51.686;5.314;2023-07-13T06:09:26;16.90;1.00
13561;DHT22;6852;51.686;5.314;2023-07-13T06:11:53;17.00;99.90
13561;DHT22;6852;51.686;5.314;2023-07-13T06:14:20;16.90;1.00
13561;DHT22;6852;51.686;5.314;2023-07-13T06:16:47;17.00;1.00
13561;DHT22;6852;51.686;5.314;2023-07-13T06:19:14;17.10;1.00
13561;DHT22;6852;51.686;5.314;2023-07-13T06:21:41;17.00;99.90
13561;DHT22;6852;51.686;5.314;2023-07-13T06:24:10;17.00;99.90
13561;DHT22;6852;51.686;5.314;2023-07-13T06:26:37;17.10;99.90
13561;DHT22;6852;51.686;5.314;2023-07-13T06:29:04;17.20;99.90
13561;DHT22;6852;51.686;5.314;2023-07-13T06:31:31;17.30;1.00
13561;DHT22;6852;51.686;5.314;2023-07-13T06:33:59;17.30;99.90
13561;DHT22;6852;51.686;5.314;2023-07-13T06:36:25;17.30;1.00
13561;DHT22;6852;51.686;5.314;2023-07-13T06:38:52;17.30;5.90
13561;DHT22;6852;51.686;5.314;2023-07-13T06:41:19;17.30;1.00
13561;DHT22;6852;51.686;5.314;2023-07-13T06:43:46;17.50;99.90
13561;DHT22;6852;51.686;5.314;2023-07-13T06:46:14;17.50;1.00
13561;DHT22;6852;51.686;5.314;2023-07-13T06:48:40;17.60;1.00
13561;DHT22;6852;51.686;5.314;2023-07-13T06:51:08;17.80;1.00
13561;DHT22;6852;51.686;5.314;2023-07-13T06:53:35;17.90;99.90
13561;DHT22;6852;51.686;5.314;2023-07-13T06:56:02;17.90;99.90
13561;DHT22;6852;51.686;5.314;2023-07-13T06:58:29;18.00;1.00
13561;DHT22;6852;51.686;5.314;2023-07-13T07:00:56;18.10;99.90
13561;DHT22;6852;51.686;5.314;2023-07-13T07:03:23;18.30;1.00
13561;DHT22;6852;51.686;5.314;2023-07-13T07:05:50;18.20;1.00
13561;DHT22;6852;51.686;5.314;2023-07-13T07:08:17;18.30;99.90
13561;DHT22;6852;51.686;5.314;2023-07-13T07:10:44;18.30;1.00
13561;DHT22;6852;51.686;5.314;2023-07-13T07:13:11;18.10;1.00
13561;DHT22;6852;51.686;5.314;2023-07-13T07:15:38;18.10;99.90
13561;DHT22;6852;51.686;5.314;2023-07-13T07:18:05;18.00;1.00
13561;DHT22;6852;51.686;5.314;2023-07-13T07:20:32;18.20;99.90
13561;DHT22;6852;51.686;5.314;2023-07-13T07:22:59;18.20;1.00
13561;DHT22;6852;51.686;5.314;2023-07-13T07:25:26;18.10;3.30
13561;DHT22;6852;51.686;5.314;2023-07-13T07:27:53;18.20;1.00
13561;DHT22;6852;51.686;5.314;2023-07-13T07:30:23;18.20;99.90
13561;DHT22;6852;51.686;5.314;2023-07-13T07:32:53;18.60;1.00
13561;DHT22;6852;51.686;5.314;2023-07-13T07:35:23;18.90;99.90
13561;DHT22;6852;51.686;5.314;2023-07-13T07:37:50;19.00;1.00
13561;DHT22;6852;51.686;5.314;2023-07-13T07:40:18;19.10;19.40
13561;DHT22;6852;51.686;5.314;2023-07-13T07:42:47;19.00;1.00
13561;DHT22;6852;51.686;5.314;2023-07-13T07:45:14;18.90;1.00
13561;DHT22;6852;51.686;5.314;2023-07-13T07:47:41;18.80;99.90
13561;DHT22;6852;51.686;5.314;2023-07-13T07:50:09;18.50;1.00
13561;DHT22;6852;51.686;5.314;2023-07-13T07:52:36;18.90;1.00
13561;DHT22;6852;51.686;5.314;2023-07-13T07:55:07;18.80;99.90
13561;DHT22;6852;51.686;5.314;2023-07-13T07:57:37;19.00;97.20
13561;DHT22;6852;51.686;5.314;2023-07-13T08:00:07;19.60;1.00
13561;DHT22;6852;51.686;5.314;2023-07-13T08:02:37;19.70;99.90
13561;DHT22;6852;51.686;5.314;2023-07-13T08:05:10;19.60;1.00
13561;DHT22;6852;51.686;5.314;2023-07-13T08:07:40;19.70;1.00
13561;DHT22;6852;51.686;5.314;2023-07-13T08:10:08;19.70;1.00
13561;DHT22;6852;51.686;5.314;2023-07-13T08:12:36;19.80;1.00
13561;DHT22;6852;51.686;5.314;2023-07-13T08:15:09;19.70;1.00
13561;DHT22;6852;51.686;5.314;2023-07-13T08:17:37;19.70;1.00
13561;DHT22;6852;51.686;5.314;2023-07-13T08:20:04;20.00;1.00
13561;DHT22;6852;51.686;5.314;2023-07-13T08:22:31;20.10;1.00
13561;DHT22;6852;51.686;5.314;2023-07-13T08:24:59;20.20;99.90
13561;DHT22;6852;51.686;5.314;2023-07-13T08:27:28;19.90;99.90
13561;DHT22;6852;51.686;5.314;2023-07-13T08:29:55;19.60;1.00
13561;DHT22;6852;51.686;5.314;2023-07-13T08:32:22;20.00;1.00
13561;DHT22;6852;51.686;5.314;2023-07-13T08:34:50;20.40;99.90
13561;DHT22;6852;51.686;5.314;2023-07-13T08:37:17;20.40;99.90
13561;DHT22;6852;51.686;5.314;2023-07-13T08:39:44;20.30;99.90
13561;DHT22;6852;51.686;5.314;2023-07-13T08:42:32;20.50;99.90
13561;DHT22;6852;51.686;5.314;2023-07-13T08:48:03;19.80;99.90
13561;DHT22;6852;51.686;5.314;2023-07-13T08:50:34;19.90;1.00
13561;DHT22;6852;51.686;5.314;2023-07-13T08:53:21;20.30;99.90
13561;DHT22;6852;51.686;5.314;2023-07-13T08:55:51;20.10;99.90
13561;DHT22;6852;51.686;5.314;2023-07-13T08:58:23;20.00;99.90
13561;DHT22;6852;51.686;5.314;2023-07-13T09:01:03;20.50;99.90
13561;DHT22;6852;51.686;5.314;2023-07-13T09:03:41;20.70;99.90
13561;DHT22;6852;51.686;5.314;2023-07-13T09:06:13;20.40;99.90
13561;DHT22;6852;51.686;5.314;2023-07-13T09:09:00;20.50;99.90
13561;DHT22;6852;51.686;5.314;2023-07-13T09:16:58;20.90;21.40
13561;DHT22;6852;51.686;5.314;2023-07-13T09:19:32;21.00;1.00
13561;DHT22;6852;51.686;5.314;2023-07-13T09:22:02;20.90;1.00
13561;DHT22;6852;51.686;5.314;2023-07-13T09:27:00;21.20;1.00
13561;DHT22;6852;51.686;5.314;2023-07-13T09:29:33;21.30;1.00
13561;DHT22;6852;51.686;5.314;2023-07-13T09:32:04;20.80;1.00
13561;DHT22;6852;51.686;5.314;2023-07-13T09:34:33;20.70;1.00
13561;DHT22;6852;51.686;5.314;2023-07-13T09:37:00;20.60;1.00
13561;DHT22;6852;51.686;5.314;2023-07-13T09:39:27;20.70;27.40
13561;DHT22;6852;51.686;5.314;2023-07-13T09:44:58;20.70;20.10
13561;DHT22;6852;51.686;5.314;2023-07-13T09:47:28;20.90;90.70
13561;DHT22;6852;51.686;5.314;2023-07-13T09:52:50;20.90;1.00
13561;DHT22;6852;51.686;5.314;2023-07-13T09:57:55;21.30;1.00
13561;DHT22;6852;51.686;5.314;2023-07-13T10:00:26;21.70;1.00
13561;DHT22;6852;51.686;5.314;2023-07-13T10:03:28;21.60;1.00
13561;DHT22;6852;51.686;5.314;2023-07-13T10:06:09;21.40;1.00
13561;DHT22;6852;51.686;5.314;2023-07-13T10:08:37;22.10;1.00
13561;DHT22;6852;51.686;5.314;2023-07-13T10:11:30;21.70;1.00
13561;DHT22;6852;51.686;5.314;2023-07-13T10:13:59;21.90;1.00
13561;DHT22;6852;51.686;5.314;2023-07-13T10:16:29;22.30;1.00
13561;DHT22;6852;51.686;5.314;2023-07-13T10:19:11;22.20;1.00
13561;DHT22;6852;51.686;5.314;2023-07-13T10:21:52;22.10;1.00
13561;DHT22;6852;51.686;5.314;2023-07-13T10:24:32;22.20;1.00
13561;DHT22;6852;51.686;5.314;2023-07-13T10:27:25;22.20;1.00
13561;DHT22;6852;51.686;5.314;2023-07-13T10:30:01;21.90;1.00
13561;DHT22;6852;51.686;5.314;2023-07-13T10:32:30;21.60;1.00
13561;DHT22;6852;51.686;5.314;2023-07-13T10:34:57;21.40;1.00
13561;DHT22;6852;51.686;5.314;2023-07-13T10:37:42;21.30;1.00
13561;DHT22;6852;51.686;5.314;2023-07-13T10:40:15;21.20;1.00
13561;DHT22;6852;51.686;5.314;2023-07-13T10:42:46;21.10;1.00
13561;DHT22;6852;51.686;5.314;2023-07-13T10:45:19;21.20;1.00
13561;DHT22;6852;51.686;5.314;2023-07-13T10:47:48;21.20;1.00
13561;DHT22;6852;51.686;5.314;2023-07-13T10:50:27;21.00;1.00
13561;DHT22;6852;51.686;5.314;2023-07-13T10:52:55;20.80;1.00
13561;DHT22;6852;51.686;5.314;2023-07-13T10:58:02;20.00;1.00
13561;DHT22;6852;51.686;5.314;2023-07-13T11:00:32;20.00;86.70
13561;DHT22;6852;51.686;5.314;2023-07-13T11:03:13;20.20;1.00
13561;DHT22;6852;51.686;5.314;2023-07-13T11:05:41;20.60;99.90
13561;DHT22;6852;51.686;5.314;2023-07-13T11:08:31;20.50;1.00
13561;DHT22;6852;51.686;5.314;2023-07-13T11:10:59;20.10;1.00
13561;DHT22;6852;51.686;5.314;2023-07-13T11:13:59;19.60;1.00
13561;DHT22;6852;51.686;5.314;2023-07-13T11:16:37;19.70;1.00
13561;DHT22;6852;51.686;5.314;2023-07-13T11:19:23;19.80;1.00
13561;DHT22;6852;51.686;5.314;2023-07-13T11:27:27;20.20;1.00
13561;DHT22;6852;51.686;5.314;2023-07-13T11:35:35;21.50;1.00
13561;DHT22;6852;51.686;5.314;2023-07-13T11:38:03;21.90;1.00
13561;DHT22;6852;51.686;5.314;2023-07-13T11:40:35;21.80;63.40
13561;DHT22;6852;51.686;5.314;2023-07-13T11:43:06;21.50;93.70
13561;DHT22;6852;51.686;5.314;2023-07-13T11:45:34;21.40;99.90
13561;DHT22;6852;51.686;5.314;2023-07-13T11:48:28;21.90;1.00
13561;DHT22;6852;51.686;5.314;2023-07-13T11:51:03;22.40;99.90
13561;DHT22;6852;51.686;5.314;2023-07-13T11:53:39;22.00;1.00
13561;DHT22;6852;51.686;5.314;2023-07-13T11:56:07;22.40;1.00
13561;DHT22;6852;51.686;5.314;2023-07-13T11:58:34;22.60;1.00
13561;DHT22;6852;51.686;5.314;2023-07-13T12:01:02;22.80;1.00
13561;DHT22;6852;51.686;5.314;2023-07-13T12:03:33;22.60;1.00
13561;DHT22;6852;51.686;5.314;2023-07-13T12:06:05;22.30;1.00
13561;DHT22;6852;51.686;5.314;2023-07-13T12:08:38;21.80;1.00
13561;DHT22;6852;51.686;5.314;2023-07-13T12:11:17;21.90;1.00
13561;DHT22;6852;51.686;5.314;2023-07-13T12:13:46;22.70;1.00
13561;DHT22;6852;51.686;5.314;2023-07-13T12:16:32;22.90;1.00
13561;DHT22;6852;51.686;5.314;2023-07-13T12:19:01;22.90;1.00
13561;DHT22;6852;51.686;5.314;2023-07-13T12:21:38;23.20;1.00
13561;DHT22;6852;51.686;5.314;2023-07-13T12:24:17;23.10;1.00
13561;DHT22;6852;51.686;5.314;2023-07-13T12:26:51;23.10;1.00
13561;DHT22;6852;51.686;5.314;2023-07-13T12:29:18;23.20;1.00
13561;DHT22;6852;51.686;5.314;2023-07-13T12:31:48;22.60;1.00
13561;DHT22;6852;51.686;5.314;2023-07-13T12:34:17;22.40;1.00
13561;DHT22;6852;51.686;5.314;2023-07-13T12:36:54;23.00;1.00
13561;DHT22;6852;51.686;5.314;2023-07-13T12:39:25;23.60;1.00
13561;DHT22;6852;51.686;5.314;2023-07-13T12:42:23;23.90;1.00
13561;DHT22;6852;51.686;5.314;2023-07-13T12:45:18;23.40;1.00
13561;DHT22;6852;51.686;5.314;2023-07-13T12:47:49;23.60;1.00
13561;DHT22;6852;51.686;5.314;2023-07-13T12:50:20;23.20;1.00
13561;DHT22;6852;51.686;5.314;2023-07-13T12:52:53;23.00;1.00
13561;DHT22;6852;51.686;5.314;2023-07-13T12:55:21;23.40;1.00
13561;DHT22;6852;51.686;5.314;2023-07-13T12:57:56;23.70;1.00
13561;DHT22;6852;51.686;5.314;2023-07-13T13:00:36;23.70;1.00
13561;DHT22;6852;51.686;5.314;2023-07-13T13:03:13;23.40;1.00
13561;DHT22;6852;51.686;5.314;2023-07-13T13:05:59;23.10;1.00
13561;DHT22;6852;51.686;5.314;2023-07-13T13:08:26;23.30;1.00
13561;DHT22;6852;51.686;5.314;2023-07-13T13:10:53;23.80;1.00
13561;DHT22;6852;51.686;5.314;2023-07-13T13:13:21;23.70;1.00
13561;DHT22;6852;51.686;5.314;2023-07-13T13:15:47;23.60;1.00
13561;DHT22;6852;51.686;5.314;2023-07-13T13:18:19;23.40;1.00
13561;DHT22;6852;51.686;5.314;2023-07-13T13:20:46;22.90;1.00
13561;DHT22;6852;51.686;5.314;2023-07-13T13:23:19;22.70;1.00
13561;DHT22;6852;51.686;5.314;2023-07-13T13:25:48;22.40;1.00
13561;DHT22;6852;51.686;5.314;2023-07-13T13:28:17;22.40;1.00
13561;DHT22;6852;51.686;5.314;2023-07-13T13:30:47;22.40;1.00
13561;DHT22;6852;51.686;5.314;2023-07-13T13:33:16;22.50;1.00
13561;DHT22;6852;51.686;5.314;2023-07-13T13:35:44;22.40;1.00
13561;DHT22;6852;51.686;5.314;2023-07-13T13:38:16;22.40;1.00
13561;DHT22;6852;51.686;5.314;2023-07-13T13:40:44;22.30;1.00
13561;DHT22;6852;51.686;5.314;2023-07-13T13:43:20;22.20;1.00
13561;DHT22;6852;51.686;5.314;2023-07-13T13:45:47;22.00;1.00
13561;DHT22;6852;51.686;5.314;2023-07-13T13:48:16;22.00;1.00
13561;DHT22;6852;51.686;5.314;2023-07-13T13:50:44;21.80;1.00
13561;DHT22;6852;51.686;5.314;2023-07-13T13:53:12;21.80;1.00
13561;DHT22;6852;51.686;5.314;2023-07-13T13:55:42;22.00;1.00
13561;DHT22;6852;51.686;5.314;2023-07-13T13:58:10;22.00;1.00
13561;DHT22;6852;51.686;5.314;2023-07-13T14:00:37;21.90;1.00
13561;DHT22;6852;51.686;5.314;2023-07-13T14:03:20;22.00;1.00
13561;DHT22;6852;51.686;5.314;2023-07-13T14:05:48;22.00;1.00
13561;DHT22;6852;51.686;5.314;2023-07-13T14:08:20;22.30;1.00
13561;DHT22;6852;51.686;5.314;2023-07-13T14:10:49;22.40;1.00
13561;DHT22;6852;51.686;5.314;2023-07-13T14:13:21;22.50;1.00
13561;DHT22;6852;51.686;5.314;2023-07-13T14:15:49;22.40;1.00
13561;DHT22;6852;51.686;5.314;2023-07-13T14:18:16;22.40;1.00
13561;DHT22;6852;51.686;5.314;2023-07-13T14:20:46;22.40;1.00
13561;DHT22;6852;51.686;5.314;2023-07-13T14:23:14;22.60;1.00
13561;DHT22;6852;51.686;5.314;2023-07-13T14:25:42;22.30;1.00
13561;DHT22;6852;51.686;5.314;2023-07-13T14:28:26;22.20;1.00
13561;DHT22;6852;51.686;5.314;2023-07-13T14:30:55;22.20;1.00
13561;DHT22;6852;51.686;5.314;2023-07-13T14:33:22;22.20;1.00
13561;DHT22;6852;51.686;5.314;2023-07-13T14:35:50;22.00;1.00
13561;DHT22;6852;51.686;5.314;2023-07-13T14:38:20;22.50;1.00
13561;DHT22;6852;51.686;5.314;2023-07-13T14:40:47;22.30;1.00
13561;DHT22;6852;51.686;5.314;2023-07-13T14:43:15;22.40;1.00
13561;DHT22;6852;51.686;5.314;2023-07-13T14:45:48;22.60;1.00
13561;DHT22;6852;51.686;5.314;2023-07-13T14:48:24;22.60;1.00
13561;DHT22;6852;51.686;5.314;2023-07-13T14:50:56;22.50;1.00
13561;DHT22;6852;51.686;5.314;2023-07-13T14:53:25;22.30;1.00
13561;DHT22;6852;51.686;5.314;2023-07-13T14:55:54;22.20;1.00
13561;DHT22;6852;51.686;5.314;2023-07-13T14:58:21;22.20;1.00
13561;DHT22;6852;51.686;5.314;2023-07-13T15:00:48;22.00;1.00
13561;DHT22;6852;51.686;5.314;2023-07-13T15:03:23;21.90;1.00
13561;DHT22;6852;51.686;5.314;2023-07-13T15:05:54;21.90;1.00
13561;DHT22;6852;51.686;5.314;2023-07-13T15:08:21;21.90;1.00
13561;DHT22;6852;51.686;5.314;2023-07-13T15:10:48;22.00;1.00
13561;DHT22;6852;51.686;5.314;2023-07-13T15:13:19;22.20;1.00
13561;DHT22;6852;51.686;5.314;2023-07-13T15:15:49;21.90;1.00
13561;DHT22;6852;51.686;5.314;2023-07-13T15:18:20;22.00;1.00
13561;DHT22;6852;51.686;5.314;2023-07-13T15:20:49;21.80;1.00
13561;DHT22;6852;51.686;5.314;2023-07-13T15:23:17;21.80;1.00
13561;DHT22;6852;51.686;5.314;2023-07-13T15:25:45;21.70;1.00
13561;DHT22;6852;51.686;5.314;2023-07-13T15:28:12;21.80;1.00
13561;DHT22;6852;51.686;5.314;2023-07-13T15:30:44;21.90;1.00
13561;DHT22;6852;51.686;5.314;2023-07-13T15:35:43;22.10;1.00
13561;DHT22;6852;51.686;5.314;2023-07-13T15:40:49;21.90;1.00
13561;DHT22;6852;51.686;5.314;2023-07-13T15:43:17;21.70;1.00
13561;DHT22;6852;51.686;5.314;2023-07-13T15:45:46;22.00;1.00
13561;DHT22;6852;51.686;5.314;2023-07-13T15:48:17;22.00;1.00
13561;DHT22;6852;51.686;5.314;2023-07-13T15:50:53;22.00;1.00
13561;DHT22;6852;51.686;5.314;2023-07-13T15:53:23;22.00;1.00
13561;DHT22;6852;51.686;5.314;2023-07-13T15:55:51;22.00;1.00
13561;DHT22;6852;51.686;5.314;2023-07-13T15:58:19;22.00;1.00
13561;DHT22;6852;51.686;5.314;2023-07-13T16:00:47;22.00;1.00
13561;DHT22;6852;51.686;5.314;2023-07-13T16:03:17;21.90;1.00
13561;DHT22;6852;51.686;5.314;2023-07-13T16:05:46;21.80;1.00
13561;DHT22;6852;51.686;5.314;2023-07-13T16:08:27;21.90;1.00
13561;DHT22;6852;51.686;5.314;2023-07-13T16:10:55;21.90;1.00
13561;DHT22;6852;51.686;5.314;2023-07-13T16:13:23;22.00;1.00
13561;DHT22;6852;51.686;5.314;2023-07-13T16:15:53;22.00;1.00
13561;DHT22;6852;51.686;5.314;2023-07-13T16:18:23;21.90;1.00
13561;DHT22;6852;51.686;5.314;2023-07-13T16:20:50;22.00;1.00
13561;DHT22;6852;51.686;5.314;2023-07-13T16:23:17;21.90;1.00
13561;DHT22;6852;51.686;5.314;2023-07-13T16:25:44;21.90;1.00
13561;DHT22;6852;51.686;5.314;2023-07-13T16:28:12;22.00;1.00
13561;DHT22;6852;51.686;5.314;2023-07-13T16:30:39;22.00;1.00
13561;DHT22;6852;51.686;5.314;2023-07-13T16:33:07;22.10;1.00
13561;DHT22;6852;51.686;5.314;2023-07-13T16:35:40;22.30;1.00
13561;DHT22;6852;51.686;5.314;2023-07-13T16:38:20;22.30;1.00
13561;DHT22;6852;51.686;5.314;2023-07-13T16:40:48;22.40;1.00
13561;DHT22;6852;51.686;5.314;2023-07-13T16:43:17;22.40;1.00
13561;DHT22;6852;51.686;5.314;2023-07-13T16:45:49;22.40;1.00
13561;DHT22;6852;51.686;5.314;2023-07-13T16:48:19;22.40;1.00
13561;DHT22;6852;51.686;5.314;2023-07-13T16:50:54;22.30;1.00
13561;DHT22;6852;51.686;5.314;2023-07-13T16:53:27;22.20;1.00